createdAt,value
2018-12-12T00:00:42.823Z,997.47
2018-12-12T00:01:42.816Z,997.47
2018-12-12T00:02:42.805Z,997.48
2018-12-12T00:03:42.797Z,997.46
2018-12-12T00:04:42.810Z,997.45
2018-12-12T00:05:42.777Z,997.45
2018-12-12T00:06:42.774Z,997.44
2018-12-12T00:07:42.756Z,997.43
2018-12-12T00:08:42.748Z,997.38
2018-12-12T00:09:42.747Z,997.39
2018-12-12T00:10:42.737Z,997.36
2018-12-12T00:11:42.715Z,997.32
2018-12-12T00:12:42.713Z,997.32
2018-12-12T00:13:42.696Z,997.33
2018-12-12T00:14:42.691Z,997.31
2018-12-12T00:15:42.680Z,997.36
2018-12-12T00:16:42.667Z,997.35
2018-12-12T00:17:42.657Z,997.35
2018-12-12T00:18:42.649Z,997.33
2018-12-12T00:19:42.639Z,997.33
2018-12-12T00:20:42.630Z,997.32
2018-12-12T00:21:42.617Z,997.29
2018-12-12T00:22:42.609Z,997.32
2018-12-12T00:23:42.599Z,997.29
2018-12-12T00:24:42.589Z,997.31
2018-12-12T00:25:42.580Z,997.35
2018-12-12T00:26:42.572Z,997.36
2018-12-12T00:27:42.562Z,997.35
2018-12-12T00:28:42.551Z,997.36
2018-12-12T00:29:42.538Z,997.26
2018-12-12T00:30:42.531Z,997.35
2018-12-12T00:31:42.519Z,997.24
2018-12-12T00:32:42.512Z,997.24
2018-12-12T00:33:42.505Z,997.2
2018-12-12T00:34:42.490Z,997.19
2018-12-12T00:35:42.486Z,997.17
2018-12-12T00:36:42.470Z,997.22
2018-12-12T00:37:42.464Z,997.23
2018-12-12T00:38:42.450Z,997.24
2018-12-12T00:39:42.442Z,997.24
2018-12-12T00:40:42.430Z,997.23
2018-12-12T00:41:42.421Z,997.22
2018-12-12T00:42:42.411Z,997.2
2018-12-12T00:43:42.404Z,997.2
2018-12-12T00:44:42.396Z,997.21
2018-12-12T00:45:42.388Z,997.21
2018-12-12T00:46:42.392Z,997.19
2018-12-12T00:47:42.365Z,997.22
2018-12-12T00:48:42.354Z,997.28
2018-12-12T00:49:42.353Z,997.24
2018-12-12T00:50:42.343Z,997.25
2018-12-12T00:51:42.327Z,997.21
2018-12-12T00:52:42.316Z,997.18
2018-12-12T00:53:42.307Z,997.2
2018-12-12T00:54:42.302Z,997.17
2018-12-12T00:55:42.290Z,997.2
2018-12-12T00:56:42.282Z,997.18
2018-12-12T00:57:42.267Z,997.16
2018-12-12T00:58:42.266Z,997.16
2018-12-12T00:59:42.249Z,997.16
2018-12-12T01:00:42.231Z,997.2
2018-12-12T01:01:42.219Z,997.16
2018-12-12T01:02:42.207Z,997.17
2018-12-12T01:03:42.204Z,997.15
2018-12-12T01:04:42.195Z,997.19
2018-12-12T01:05:42.188Z,997.19
2018-12-12T01:06:42.172Z,997.2
2018-12-12T01:07:42.162Z,997.26
2018-12-12T01:08:42.153Z,997.24
2018-12-12T01:09:42.149Z,997.27
2018-12-12T01:10:42.130Z,997.27
2018-12-12T01:11:42.122Z,997.3
2018-12-12T01:12:42.112Z,997.29
2018-12-12T01:13:42.101Z,997.25
2018-12-12T01:14:42.094Z,997.29
2018-12-12T01:15:42.098Z,997.28
2018-12-12T01:16:42.072Z,997.31
2018-12-12T01:17:42.063Z,997.32
2018-12-12T01:18:42.053Z,997.32
2018-12-12T01:19:42.041Z,997.33
2018-12-12T01:20:42.030Z,997.35
2018-12-12T01:21:42.027Z,997.36
2018-12-12T01:22:42.010Z,997.33
2018-12-12T01:23:42.004Z,997.38
2018-12-12T01:24:41.991Z,997.43
2018-12-12T01:25:41.983Z,997.39
2018-12-12T01:26:41.974Z,997.4
2018-12-12T01:27:41.960Z,997.42
2018-12-12T01:28:41.949Z,997.38
2018-12-12T01:29:41.943Z,997.41
2018-12-12T01:30:41.933Z,997.43
2018-12-12T01:31:41.919Z,997.42
2018-12-12T01:32:41.918Z,997.45
2018-12-12T01:33:41.900Z,997.43
2018-12-12T01:34:41.902Z,997.44
2018-12-12T01:35:41.879Z,997.45
2018-12-12T01:36:41.868Z,997.38
2018-12-12T01:37:41.862Z,997.36
2018-12-12T01:38:41.847Z,997.38
2018-12-12T01:39:41.838Z,997.38
2018-12-12T01:40:41.828Z,997.34
2018-12-12T01:41:41.817Z,997.31
2018-12-12T01:42:41.806Z,997.26
2018-12-12T01:43:41.797Z,997.29
2018-12-12T01:44:41.788Z,997.3
2018-12-12T01:45:41.776Z,997.21
2018-12-12T01:46:41.784Z,997.24
2018-12-12T01:47:41.757Z,997.23
2018-12-12T01:48:41.748Z,997.23
2018-12-12T01:49:41.734Z,997.21
2018-12-12T01:50:41.726Z,997.2
2018-12-12T01:51:41.718Z,997.16
2018-12-12T01:52:41.707Z,997.22
2018-12-12T01:53:41.699Z,997.2
2018-12-12T01:54:41.691Z,997.17
2018-12-12T01:55:41.674Z,997.16
2018-12-12T01:56:41.670Z,997.18
2018-12-12T01:57:41.672Z,997.16
2018-12-12T01:58:41.647Z,997.15
2018-12-12T01:59:41.646Z,997.18
2018-12-12T02:00:41.630Z,997.22
2018-12-12T02:01:41.613Z,997.22
2018-12-12T02:02:41.604Z,997.17
2018-12-12T02:03:41.593Z,997.2
2018-12-12T02:04:41.585Z,997.19
2018-12-12T02:05:41.575Z,997.15
2018-12-12T02:06:41.564Z,997.19
2018-12-12T02:07:41.552Z,997.15
2018-12-12T02:08:41.557Z,997.13
2018-12-12T02:09:41.535Z,997.14
2018-12-12T02:10:41.521Z,997.13
2018-12-12T02:11:41.523Z,997.13
2018-12-12T02:12:41.511Z,997.1
2018-12-12T02:13:41.491Z,997.1
2018-12-12T02:14:41.483Z,997.12
2018-12-12T02:15:41.470Z,997.13
2018-12-12T02:16:41.465Z,997.12
2018-12-12T02:17:41.462Z,997.16
2018-12-12T02:18:41.440Z,997.13
2018-12-12T02:19:41.444Z,997.19
2018-12-12T02:20:41.421Z,997.21
2018-12-12T02:21:41.425Z,997.19
2018-12-12T02:22:41.401Z,997.19
2018-12-12T02:23:41.393Z,997.21
2018-12-12T02:24:41.382Z,997.27
2018-12-12T02:25:41.371Z,997.23
2018-12-12T02:26:41.360Z,997.28
2018-12-12T02:27:41.351Z,997.24
2018-12-12T02:28:41.338Z,997.26
2018-12-12T02:29:41.327Z,997.22
2018-12-12T02:30:41.327Z,997.22
2018-12-12T02:31:41.308Z,997.26
2018-12-12T02:32:41.300Z,997.31
2018-12-12T02:33:41.289Z,997.27
2018-12-12T02:34:42.079Z,997.25
2018-12-12T02:35:41.271Z,997.29
2018-12-12T02:36:41.262Z,997.26
2018-12-12T02:37:41.249Z,997.28
2018-12-12T02:38:41.245Z,997.31
2018-12-12T02:39:41.228Z,997.29
2018-12-12T02:40:41.217Z,997.3
2018-12-12T02:41:41.209Z,997.3
2018-12-12T02:42:41.199Z,997.35
2018-12-12T02:43:41.190Z,997.35
2018-12-12T02:44:41.175Z,997.31
2018-12-12T02:45:41.183Z,997.26
2018-12-12T02:46:41.152Z,997.32
2018-12-12T02:47:41.146Z,997.31
2018-12-12T02:48:41.133Z,997.3
2018-12-12T02:49:41.123Z,997.31
2018-12-12T02:50:41.114Z,997.29
2018-12-12T02:51:41.102Z,997.31
2018-12-12T02:52:41.095Z,997.37
2018-12-12T02:53:41.079Z,997.33
2018-12-12T02:54:41.081Z,997.32
2018-12-12T02:55:41.071Z,997.25
2018-12-12T02:56:41.052Z,997.3
2018-12-12T02:57:41.042Z,997.29
2018-12-12T02:58:41.029Z,997.27
2018-12-12T02:59:41.018Z,997.27
2018-12-12T03:00:41.007Z,997.24
2018-12-12T03:01:40.997Z,997.26
2018-12-12T03:02:40.985Z,997.27
2018-12-12T03:03:40.990Z,997.28
2018-12-12T03:04:41.034Z,997.26
2018-12-12T03:05:40.956Z,997.29
2018-12-12T03:06:40.943Z,997.29
2018-12-12T03:07:40.939Z,997.3
2018-12-12T03:08:40.924Z,997.34
2018-12-12T03:09:40.915Z,997.32
2018-12-12T03:10:40.902Z,997.37
2018-12-12T03:11:40.900Z,997.33
2018-12-12T03:12:40.881Z,997.35
2018-12-12T03:13:40.871Z,997.31
2018-12-12T03:14:40.866Z,997.33
2018-12-12T03:15:40.850Z,997.32
2018-12-12T03:16:40.846Z,997.3
2018-12-12T03:17:40.835Z,997.25
2018-12-12T03:18:40.822Z,997.27
2018-12-12T03:19:40.823Z,997.23
2018-12-12T03:20:40.801Z,997.27
2018-12-12T03:21:40.792Z,997.26
2018-12-12T03:22:40.781Z,997.24
2018-12-12T03:23:40.771Z,997.28
2018-12-12T03:24:40.763Z,997.28
2018-12-12T03:25:40.775Z,997.3
2018-12-12T03:26:40.738Z,997.26
2018-12-12T03:27:40.731Z,997.28
2018-12-12T03:28:40.720Z,997.28
2018-12-12T03:29:40.708Z,997.28
2018-12-12T03:30:40.703Z,997.28
2018-12-12T03:31:40.721Z,997.25
2018-12-12T03:32:40.683Z,997.27
2018-12-12T03:33:40.670Z,997.26
2018-12-12T03:34:40.665Z,997.22
2018-12-12T03:35:40.649Z,997.26
2018-12-12T03:36:40.642Z,997.22
2018-12-12T03:37:40.642Z,997.17
2018-12-12T03:38:40.619Z,997.17
2018-12-12T03:39:40.613Z,997.14
2018-12-12T03:40:40.601Z,997.2
2018-12-12T03:41:40.591Z,997.14
2018-12-12T03:42:40.585Z,997.11
2018-12-12T03:43:40.575Z,997.13
2018-12-12T03:44:40.559Z,997.09
2018-12-12T03:45:40.563Z,997.06
2018-12-12T03:46:40.550Z,997.07
2018-12-12T03:47:40.562Z,997.06
2018-12-12T03:48:40.524Z,997.06
2018-12-12T03:49:40.530Z,997.03
2018-12-12T03:50:40.503Z,997.05
2018-12-12T03:51:40.492Z,997.05
2018-12-12T03:52:40.486Z,997.02
2018-12-12T03:53:40.469Z,997.06
2018-12-12T03:54:40.461Z,997.08
2018-12-12T03:55:40.454Z,997.06
2018-12-12T03:56:40.443Z,997.02
2018-12-12T03:57:40.432Z,997.06
2018-12-12T03:58:40.440Z,997.03
2018-12-12T03:59:40.413Z,997.07
2018-12-12T04:00:40.435Z,997.07
2018-12-12T04:01:40.399Z,997.08
2018-12-12T04:02:40.382Z,997.09
2018-12-12T04:03:40.373Z,997.09
2018-12-12T04:04:40.369Z,997.07
2018-12-12T04:05:40.349Z,997.06
2018-12-12T04:06:40.348Z,997.07
2018-12-12T04:07:40.332Z,997.11
2018-12-12T04:08:40.321Z,997.1
2018-12-12T04:09:40.329Z,997.11
2018-12-12T04:10:40.311Z,997.12
2018-12-12T04:11:40.294Z,997.13
2018-12-12T04:12:40.282Z,997.14
2018-12-12T04:13:40.272Z,997.12
2018-12-12T04:14:40.264Z,997.13
2018-12-12T04:15:40.254Z,997.12
2018-12-12T04:16:40.250Z,997.12
2018-12-12T04:17:40.243Z,997.14
2018-12-12T04:18:40.225Z,997.13
2018-12-12T04:19:40.212Z,997.1
2018-12-12T04:20:40.215Z,997.13
2018-12-12T04:21:40.200Z,997.11
2018-12-12T04:22:40.184Z,997.11
2018-12-12T04:23:40.177Z,997.13
2018-12-12T04:24:40.164Z,997.14
2018-12-12T04:25:40.153Z,997.16
2018-12-12T04:26:40.146Z,997.14
2018-12-12T04:27:40.140Z,997.14
2018-12-12T04:28:40.123Z,997.09
2018-12-12T04:29:40.118Z,997.15
2018-12-12T04:30:40.106Z,997.14
2018-12-12T04:31:40.117Z,997.14
2018-12-12T04:32:40.086Z,997.18
2018-12-12T04:33:40.086Z,997.17
2018-12-12T04:34:40.069Z,997.19
2018-12-12T04:35:40.857Z,997.24
2018-12-12T04:36:40.048Z,997.23
2018-12-12T04:37:40.034Z,997.25
2018-12-12T04:38:40.027Z,997.24
2018-12-12T04:39:40.019Z,997.23
2018-12-12T04:40:40.012Z,997.26
2018-12-12T04:41:39.993Z,997.25
2018-12-12T04:42:40.000Z,997.27
2018-12-12T04:43:39.977Z,997.21
2018-12-12T04:44:39.966Z,997.21
2018-12-12T04:45:39.957Z,997.27
2018-12-12T04:46:39.949Z,997.24
2018-12-12T04:47:39.946Z,997.22
2018-12-12T04:48:39.926Z,997.21
2018-12-12T04:49:39.917Z,997.2
2018-12-12T04:50:39.908Z,997.2
2018-12-12T04:51:39.912Z,997.23
2018-12-12T04:52:39.887Z,997.19
2018-12-12T04:53:39.885Z,997.21
2018-12-12T04:54:39.866Z,997.18
2018-12-12T04:55:39.856Z,997.21
2018-12-12T04:56:39.847Z,997.2
2018-12-12T04:57:39.838Z,997.2
2018-12-12T04:58:39.827Z,997.2
2018-12-12T04:59:39.819Z,997.18
2018-12-12T05:00:39.807Z,997.19
2018-12-12T05:01:39.817Z,997.15
2018-12-12T05:02:39.787Z,997.25
2018-12-12T05:03:39.774Z,997.25
2018-12-12T05:04:39.772Z,997.2
2018-12-12T05:05:39.756Z,997.22
2018-12-12T05:06:39.746Z,997.22
2018-12-12T05:07:39.736Z,997.19
2018-12-12T05:08:39.728Z,997.26
2018-12-12T05:09:39.718Z,997.26
2018-12-12T05:10:39.707Z,997.25
2018-12-12T05:11:39.696Z,997.27
2018-12-12T05:12:39.687Z,997.28
2018-12-12T05:13:39.679Z,997.25
2018-12-12T05:14:39.664Z,997.25
2018-12-12T05:15:39.661Z,997.29
2018-12-12T05:16:39.644Z,997.31
2018-12-12T05:17:39.635Z,997.28
2018-12-12T05:18:39.637Z,997.31
2018-12-12T05:19:39.611Z,997.28
2018-12-12T05:20:39.621Z,997.28
2018-12-12T05:21:39.592Z,997.35
2018-12-12T05:22:39.584Z,997.32
2018-12-12T05:23:39.571Z,997.3
2018-12-12T05:24:39.565Z,997.34
2018-12-12T05:25:39.551Z,997.33
2018-12-12T05:26:39.562Z,997.36
2018-12-12T05:27:39.533Z,997.31
2018-12-12T05:28:39.519Z,997.35
2018-12-12T05:29:39.510Z,997.38
2018-12-12T05:30:39.500Z,997.34
2018-12-12T05:31:39.490Z,997.35
2018-12-12T05:32:39.479Z,997.36
2018-12-12T05:33:39.474Z,997.37
2018-12-12T05:34:39.459Z,997.38
2018-12-12T05:35:39.455Z,997.37
2018-12-12T05:36:39.448Z,997.34
2018-12-12T05:37:39.448Z,997.3
2018-12-12T05:38:39.424Z,997.33
2018-12-12T05:39:39.414Z,997.31
2018-12-12T05:40:39.399Z,997.31
2018-12-12T05:41:39.396Z,997.28
2018-12-12T05:42:39.391Z,997.3
2018-12-12T05:43:39.368Z,997.26
2018-12-12T05:44:39.360Z,997.24
2018-12-12T05:45:39.351Z,997.27
2018-12-12T05:46:41.893Z,997.27
2018-12-12T05:47:39.337Z,997.26
2018-12-12T05:48:39.325Z,997.29
2018-12-12T05:49:39.314Z,997.28
2018-12-12T05:50:39.302Z,997.29
2018-12-12T05:51:39.289Z,997.3
2018-12-12T05:52:39.285Z,997.27
2018-12-12T05:53:39.268Z,997.27
2018-12-12T05:54:39.258Z,997.3
2018-12-12T05:55:39.247Z,997.29
2018-12-12T05:56:39.237Z,997.29
2018-12-12T05:57:39.228Z,997.32
2018-12-12T05:58:39.218Z,997.31
2018-12-12T05:59:39.222Z,997.29
2018-12-12T06:00:39.197Z,997.3
2018-12-12T06:01:39.190Z,997.32
2018-12-12T06:02:39.177Z,997.35
2018-12-12T06:03:39.166Z,997.37
2018-12-12T06:04:39.157Z,997.36
2018-12-12T06:05:39.147Z,997.35
2018-12-12T06:06:39.136Z,997.32
2018-12-12T06:07:39.128Z,997.32
2018-12-12T06:08:39.117Z,997.32
2018-12-12T06:09:39.108Z,997.32
2018-12-12T06:10:39.106Z,997.34
2018-12-12T06:11:39.091Z,997.32
2018-12-12T06:12:39.078Z,997.29
2018-12-12T06:13:39.077Z,997.3
2018-12-12T06:14:39.059Z,997.3
2018-12-12T06:15:39.048Z,997.27
2018-12-12T06:16:39.037Z,997.27
2018-12-12T06:17:39.030Z,997.31
2018-12-12T06:18:39.019Z,997.26
2018-12-12T06:19:39.013Z,997.26
2018-12-12T06:20:39.001Z,997.26
2018-12-12T06:21:38.993Z,997.24
2018-12-12T06:22:38.980Z,997.25
2018-12-12T06:23:38.975Z,997.29
2018-12-12T06:24:38.959Z,997.25
2018-12-12T06:25:38.949Z,997.29
2018-12-12T06:26:38.940Z,997.25
2018-12-12T06:27:38.929Z,997.25
2018-12-12T06:28:38.920Z,997.19
2018-12-12T06:29:38.916Z,997.22
2018-12-12T06:30:38.900Z,997.22
2018-12-12T06:31:38.890Z,997.23
2018-12-12T06:32:38.899Z,997.23
2018-12-12T06:33:38.875Z,997.22
2018-12-12T06:34:38.860Z,997.24
2018-12-12T06:35:38.852Z,997.26
2018-12-12T06:36:38.843Z,997.25
2018-12-12T06:37:38.831Z,997.22
2018-12-12T06:38:38.825Z,997.21
2018-12-12T06:39:38.814Z,997.21
2018-12-12T06:40:38.802Z,997.23
2018-12-12T06:41:38.798Z,997.27
2018-12-12T06:42:38.785Z,997.25
2018-12-12T06:43:38.786Z,997.24
2018-12-12T06:44:38.767Z,997.27
2018-12-12T06:45:38.754Z,997.25
2018-12-12T06:46:38.743Z,997.26
2018-12-12T06:47:38.735Z,997.28
2018-12-12T06:48:38.727Z,997.23
2018-12-12T06:49:38.719Z,997.27
2018-12-12T06:50:38.705Z,997.29
2018-12-12T06:51:38.699Z,997.3
2018-12-12T06:52:38.698Z,997.32
2018-12-12T06:53:38.685Z,997.35
2018-12-12T06:54:38.670Z,997.29
2018-12-12T06:55:38.657Z,997.3
2018-12-12T06:56:38.647Z,997.3
2018-12-12T06:57:38.642Z,997.32
2018-12-12T06:58:38.628Z,997.31
2018-12-12T06:59:38.618Z,997.35
2018-12-12T07:00:38.609Z,997.33
2018-12-12T07:01:38.600Z,997.32
2018-12-12T07:02:38.589Z,997.33
2018-12-12T07:03:38.577Z,997.32
2018-12-12T07:04:38.569Z,997.29
2018-12-12T07:05:38.563Z,997.25
2018-12-12T07:06:38.549Z,997.29
2018-12-12T07:07:38.542Z,997.29
2018-12-12T07:08:38.530Z,997.31
2018-12-12T07:09:38.532Z,997.28
2018-12-12T07:10:38.510Z,997.3
2018-12-12T07:11:38.503Z,997.33
2018-12-12T07:12:38.494Z,997.33
2018-12-12T07:13:38.485Z,997.35
2018-12-12T07:14:38.472Z,997.35
2018-12-12T07:15:38.463Z,997.37
2018-12-12T07:16:38.459Z,997.4
2018-12-12T07:17:38.448Z,997.38
2018-12-12T07:18:38.433Z,997.41
2018-12-12T07:19:38.422Z,997.44
2018-12-12T07:20:38.415Z,997.41
2018-12-12T07:21:38.414Z,997.42
2018-12-12T07:22:38.415Z,997.43
2018-12-12T07:23:38.393Z,997.44
2018-12-12T07:24:38.374Z,997.4
2018-12-12T07:25:38.364Z,997.48
2018-12-12T07:26:38.355Z,997.42
2018-12-12T07:27:38.346Z,997.44
2018-12-12T07:28:38.338Z,997.44
2018-12-12T07:29:38.324Z,997.49
2018-12-12T07:30:38.316Z,997.48
2018-12-12T07:31:38.306Z,997.49
2018-12-12T07:32:38.297Z,997.45
2018-12-12T07:33:38.284Z,997.49
2018-12-12T07:34:38.275Z,997.52
2018-12-12T07:35:38.265Z,997.46
2018-12-12T07:36:38.253Z,997.49
2018-12-12T07:37:38.246Z,997.46
2018-12-12T07:38:38.244Z,997.49
2018-12-12T07:39:38.225Z,997.5
2018-12-12T07:40:38.212Z,997.45
2018-12-12T07:41:38.201Z,997.49
2018-12-12T07:42:38.194Z,997.45
2018-12-12T07:43:38.182Z,997.49
2018-12-12T07:44:38.173Z,997.49
2018-12-12T07:45:38.162Z,997.48
2018-12-12T07:46:38.153Z,997.48
2018-12-12T07:47:38.150Z,997.45
2018-12-12T07:48:38.131Z,997.51
2018-12-12T07:49:38.121Z,997.48
2018-12-12T07:50:38.116Z,997.51
2018-12-12T07:51:38.099Z,997.45
2018-12-12T07:52:38.129Z,997.47
2018-12-12T07:53:38.077Z,997.45
2018-12-12T07:54:38.066Z,997.42
2018-12-12T07:55:38.058Z,997.43
2018-12-12T07:56:38.049Z,997.49
2018-12-12T07:57:38.042Z,997.44
2018-12-12T07:58:38.062Z,997.47
2018-12-12T07:59:38.013Z,997.47
2018-12-12T08:00:38.003Z,997.53
2018-12-12T08:01:37.993Z,997.49
2018-12-12T08:02:37.983Z,997.51
2018-12-12T08:03:37.980Z,997.53
2018-12-12T08:04:37.983Z,997.49
2018-12-12T08:05:37.954Z,997.48
2018-12-12T08:06:37.940Z,997.48
2018-12-12T08:07:38.741Z,997.47
2018-12-12T08:08:37.923Z,997.51
2018-12-12T08:09:37.917Z,997.47
2018-12-12T08:10:37.910Z,997.48
2018-12-12T08:11:37.891Z,997.48
2018-12-12T08:12:37.880Z,997.5
2018-12-12T08:13:37.868Z,997.46
2018-12-12T08:14:37.857Z,997.48
2018-12-12T08:15:37.850Z,997.49
2018-12-12T08:16:37.839Z,997.48
2018-12-12T08:17:37.828Z,997.47
2018-12-12T08:18:37.819Z,997.52
2018-12-12T08:19:37.811Z,997.48
2018-12-12T08:20:37.801Z,997.49
2018-12-12T08:21:37.790Z,997.47
2018-12-12T08:22:37.791Z,997.47
2018-12-12T08:23:37.775Z,997.47
2018-12-12T08:24:37.759Z,997.48
2018-12-12T08:25:37.759Z,997.43
2018-12-12T08:26:37.744Z,997.46
2018-12-12T08:27:39.305Z,997.46
2018-12-12T08:28:37.732Z,997.46
2018-12-12T08:29:37.715Z,997.5
2018-12-12T08:30:37.703Z,997.45
2018-12-12T08:31:37.692Z,997.48
2018-12-12T08:32:37.682Z,997.47
2018-12-12T08:33:37.674Z,997.46
2018-12-12T08:34:37.663Z,997.49
2018-12-12T08:35:37.653Z,997.47
2018-12-12T08:36:37.656Z,997.49
2018-12-12T08:37:37.635Z,997.49
2018-12-12T08:38:37.624Z,997.48
2018-12-12T08:39:37.616Z,997.46
2018-12-12T08:40:37.605Z,997.51
2018-12-12T08:41:37.598Z,997.49
2018-12-12T08:42:37.591Z,997.48
2018-12-12T08:43:37.577Z,997.51
2018-12-12T08:44:37.566Z,997.52
2018-12-12T08:45:37.559Z,997.52
2018-12-12T08:46:37.547Z,997.51
2018-12-12T08:47:37.541Z,997.52
2018-12-12T08:48:37.529Z,997.54
2018-12-12T08:49:37.521Z,997.48
2018-12-12T08:50:37.512Z,997.54
2018-12-12T08:51:37.505Z,997.54
2018-12-12T08:52:37.493Z,997.54
2018-12-12T08:53:37.479Z,997.56
2018-12-12T08:54:37.472Z,997.55
2018-12-12T08:55:37.466Z,997.57
2018-12-12T08:56:37.455Z,997.58
2018-12-12T08:57:37.447Z,997.58
2018-12-12T08:58:37.450Z,997.57
2018-12-12T08:59:37.429Z,997.63
2018-12-12T09:00:37.419Z,997.59
2018-12-12T09:01:37.409Z,997.62
2018-12-12T09:02:37.399Z,997.59
2018-12-12T09:03:37.393Z,997.64
2018-12-12T09:04:37.390Z,997.6
2018-12-12T09:05:37.373Z,997.59
2018-12-12T09:06:37.361Z,997.61
2018-12-12T09:07:37.355Z,997.67
2018-12-12T09:08:37.362Z,997.65
2018-12-12T09:09:37.340Z,997.66
2018-12-12T09:10:37.330Z,997.66
2018-12-12T09:11:37.317Z,997.7
2018-12-12T09:12:37.310Z,997.65
2018-12-12T09:13:37.300Z,997.71
2018-12-12T09:14:37.290Z,997.69
2018-12-12T09:15:37.283Z,997.74
2018-12-12T09:16:37.271Z,997.74
2018-12-12T09:17:37.263Z,997.73
2018-12-12T09:18:37.254Z,997.76
2018-12-12T09:19:37.255Z,997.78
2018-12-12T09:20:37.238Z,997.8
2018-12-12T09:21:37.233Z,997.79
2018-12-12T09:22:37.217Z,997.78
2018-12-12T09:23:37.207Z,997.81
2018-12-12T09:24:37.199Z,997.81
2018-12-12T09:25:37.190Z,997.81
2018-12-12T09:26:37.182Z,997.79
2018-12-12T09:27:37.174Z,997.78
2018-12-12T09:28:37.163Z,997.79
2018-12-12T09:29:37.150Z,997.76
2018-12-12T09:30:37.151Z,997.75
2018-12-12T09:31:37.132Z,997.75
2018-12-12T09:32:37.123Z,997.72
2018-12-12T09:33:37.115Z,997.73
2018-12-12T09:34:37.107Z,997.71
2018-12-12T09:35:37.098Z,997.7
2018-12-12T09:36:37.089Z,997.7
2018-12-12T09:37:37.083Z,997.69
2018-12-12T09:38:37.873Z,997.67
2018-12-12T09:39:37.059Z,997.64
2018-12-12T09:40:37.052Z,997.7
2018-12-12T09:41:37.048Z,997.69
2018-12-12T09:42:37.031Z,997.62
2018-12-12T09:43:37.024Z,997.66
2018-12-12T09:44:37.013Z,997.65
2018-12-12T09:45:37.005Z,997.59
2018-12-12T09:46:36.995Z,997.62
2018-12-12T09:47:36.986Z,997.64
2018-12-12T09:48:36.979Z,997.61
2018-12-12T09:49:36.970Z,997.65
2018-12-12T09:50:36.962Z,997.66
2018-12-12T09:51:36.949Z,997.67
2018-12-12T09:52:36.942Z,997.69
2018-12-12T09:53:36.943Z,997.7
2018-12-12T09:54:36.935Z,997.73
2018-12-12T09:55:36.916Z,997.71
2018-12-12T09:56:36.906Z,997.69
2018-12-12T09:57:36.912Z,997.69
2018-12-12T09:58:36.895Z,997.63
2018-12-12T09:59:36.881Z,997.62
2018-12-12T10:00:36.875Z,997.62
2018-12-12T10:01:36.862Z,997.63
2018-12-12T10:02:36.853Z,997.62
2018-12-12T10:03:36.843Z,997.64
2018-12-12T10:04:36.834Z,997.66
2018-12-12T10:05:36.830Z,997.62
2018-12-12T10:06:36.827Z,997.65
2018-12-12T10:07:36.807Z,997.69
2018-12-12T10:08:36.796Z,997.63
2018-12-12T10:09:36.788Z,997.65
2018-12-12T10:10:36.782Z,997.61
2018-12-12T10:11:36.769Z,997.58
2018-12-12T10:12:36.763Z,997.6
2018-12-12T10:13:36.750Z,997.65
2018-12-12T10:14:36.743Z,997.61
2018-12-12T10:15:36.744Z,997.6
2018-12-12T10:16:36.742Z,997.62
2018-12-12T10:17:36.716Z,997.6
2018-12-12T10:18:36.707Z,997.58
2018-12-12T10:19:36.699Z,997.57
2018-12-12T10:20:36.707Z,997.6
2018-12-12T10:21:36.687Z,997.57
2018-12-12T10:22:36.671Z,997.59
2018-12-12T10:23:36.658Z,997.55
2018-12-12T10:24:36.647Z,997.57
2018-12-12T10:25:36.645Z,997.57
2018-12-12T10:26:36.632Z,997.58
2018-12-12T10:27:36.632Z,997.64
2018-12-12T10:28:36.610Z,997.62
2018-12-12T10:29:36.606Z,997.58
2018-12-12T10:30:36.607Z,997.52
2018-12-12T10:31:36.587Z,997.57
2018-12-12T10:32:36.574Z,997.55
2018-12-12T10:33:37.684Z,997.56
2018-12-12T10:34:36.556Z,997.6
2018-12-12T10:35:36.548Z,997.59
2018-12-12T10:36:36.542Z,997.52
2018-12-12T10:37:36.528Z,997.53
2018-12-12T10:38:36.534Z,997.5
2018-12-12T10:39:36.527Z,997.51
2018-12-12T10:40:36.495Z,997.49
2018-12-12T10:41:36.497Z,997.44
2018-12-12T10:42:36.490Z,997.47
2018-12-12T10:43:36.469Z,997.41
2018-12-12T10:44:36.457Z,997.4
2018-12-12T10:45:36.449Z,997.42
2018-12-12T10:46:36.440Z,997.39
2018-12-12T10:47:36.429Z,997.43
2018-12-12T10:48:36.422Z,997.41
2018-12-12T10:49:36.419Z,997.4
2018-12-12T10:50:36.398Z,997.38
2018-12-12T10:51:36.389Z,997.41
2018-12-12T10:52:36.377Z,997.36
2018-12-12T10:53:36.369Z,997.4
2018-12-12T10:54:36.360Z,997.34
2018-12-12T10:55:36.352Z,997.38
2018-12-12T10:56:36.345Z,997.36
2018-12-12T10:57:36.332Z,997.36
2018-12-12T10:58:36.329Z,997.33
2018-12-12T10:59:36.313Z,997.37
2018-12-12T11:00:36.313Z,997.31
2018-12-12T11:01:36.294Z,997.33
2018-12-12T11:02:36.286Z,997.29
2018-12-12T11:03:36.281Z,997.28
2018-12-12T11:04:36.272Z,997.3
2018-12-12T11:05:36.256Z,997.31
2018-12-12T11:06:36.246Z,997.29
2018-12-12T11:07:36.238Z,997.27
2018-12-12T11:08:36.229Z,997.29
2018-12-12T11:09:37.021Z,997.32
2018-12-12T11:10:36.211Z,997.29
2018-12-12T11:11:36.201Z,997.3
2018-12-12T11:12:36.192Z,997.28
2018-12-12T11:13:36.188Z,997.23
2018-12-12T11:14:36.175Z,997.25
2018-12-12T11:15:36.165Z,997.2
2018-12-12T11:16:36.155Z,997.26
2018-12-12T11:17:36.144Z,997.21
2018-12-12T11:18:36.139Z,997.22
2018-12-12T11:19:36.131Z,997.25
2018-12-12T11:20:36.129Z,997.28
2018-12-12T11:21:36.112Z,997.24
2018-12-12T11:22:36.100Z,997.18
2018-12-12T11:23:36.090Z,997.16
2018-12-12T11:24:36.082Z,997.25
2018-12-12T11:25:36.071Z,997.23
2018-12-12T11:26:36.066Z,997.23
2018-12-12T11:27:36.055Z,997.22
2018-12-12T11:28:36.047Z,997.18
2018-12-12T11:29:36.038Z,997.12
2018-12-12T11:30:36.029Z,997.14
2018-12-12T11:31:36.024Z,997.14
2018-12-12T11:32:36.026Z,997.14
2018-12-12T11:33:36.007Z,997.17
2018-12-12T11:34:35.998Z,997.13
2018-12-12T11:35:35.988Z,997.08
2018-12-12T11:36:35.982Z,997.04
2018-12-12T11:37:35.974Z,997.01
2018-12-12T11:38:35.970Z,997.01
2018-12-12T11:39:35.965Z,996.96
2018-12-12T11:40:35.950Z,996.98
2018-12-12T11:41:35.943Z,996.94
2018-12-12T11:42:35.936Z,996.89
2018-12-12T11:43:35.924Z,996.87
2018-12-12T11:44:35.918Z,996.88
2018-12-12T11:45:35.914Z,996.83
2018-12-12T11:46:35.920Z,996.84
2018-12-12T11:47:35.894Z,996.81
2018-12-12T11:48:35.885Z,996.77
2018-12-12T11:49:35.880Z,996.8
2018-12-12T11:50:35.872Z,996.74
2018-12-12T11:51:35.864Z,996.77
2018-12-12T11:52:35.853Z,996.71
2018-12-12T11:53:35.851Z,996.71
2018-12-12T11:54:35.840Z,996.69
2018-12-12T11:55:35.830Z,996.69
2018-12-12T11:56:35.823Z,996.66
2018-12-12T11:57:35.823Z,996.62
2018-12-12T11:58:35.812Z,996.66
2018-12-12T11:59:35.800Z,996.62
2018-12-12T12:00:35.790Z,996.62
2018-12-12T12:01:35.782Z,996.63
2018-12-12T12:02:35.841Z,996.63
2018-12-12T12:03:35.768Z,996.64
2018-12-12T12:04:35.759Z,996.66
2018-12-12T12:05:35.757Z,996.63
2018-12-12T12:06:35.746Z,996.64
2018-12-12T12:07:35.737Z,996.63
2018-12-12T12:08:35.727Z,996.66
2018-12-12T12:09:35.768Z,996.65
2018-12-12T12:10:35.712Z,996.59
2018-12-12T12:11:35.703Z,996.58
2018-12-12T12:12:35.693Z,996.61
2018-12-12T12:13:35.687Z,996.59
2018-12-12T12:14:35.679Z,996.6
2018-12-12T12:15:35.670Z,996.57
2018-12-12T12:16:35.661Z,996.52
2018-12-12T12:17:35.658Z,996.49
2018-12-12T12:18:35.648Z,996.54
2018-12-12T12:19:35.647Z,996.53
2018-12-12T12:20:35.628Z,996.51
2018-12-12T12:21:35.665Z,996.5
2018-12-12T12:22:35.611Z,996.52
2018-12-12T12:23:35.605Z,996.55
2018-12-12T12:24:35.599Z,996.51
2018-12-12T12:25:35.590Z,996.54
2018-12-12T12:26:35.578Z,996.53
2018-12-12T12:27:35.575Z,996.54
2018-12-12T12:28:35.564Z,996.52
2018-12-12T12:29:35.553Z,996.48
2018-12-12T12:30:35.547Z,996.53